createdAt,value
2023-03-20T00:00:19.440Z,23.19
2023-03-20T00:56:30.659Z,22.04
2023-03-20T01:00:31.633Z,22.40
2023-03-20T01:04:31.565Z,22.54
2023-03-20T01:08:31.549Z,22.67
2023-03-20T01:12:31.575Z,22.78
2023-03-20T01:16:31.567Z,22.86
2023-03-20T01:20:31.488Z,22.92
2023-03-20T01:24:31.476Z,22.98
2023-03-20T01:28:31.504Z,23.03
2023-03-20T01:32:31.516Z,23.06
2023-03-20T01:36:31.574Z,23.08
2023-03-20T01:40:31.637Z,23.10
2023-03-20T01:44:31.719Z,23.11
2023-03-20T01:48:31.745Z,23.12
2023-03-20T01:52:31.807Z,23.13
2023-03-20T01:56:31.902Z,23.14
2023-03-20T02:00:32.013Z,23.14
2023-03-20T02:04:32.112Z,23.15
2023-03-20T02:08:32.125Z,23.15
2023-03-20T02:12:32.172Z,23.15
2023-03-20T02:16:32.315Z,23.15
2023-03-20T02:20:32.279Z,23.16
2023-03-20T02:24:32.340Z,23.16
2023-03-20T02:28:32.406Z,23.16
2023-03-20T02:32:32.548Z,23.16
2023-03-20T02:36:32.543Z,23.16
2023-03-20T02:40:32.598Z,23.16
2023-03-20T02:44:32.648Z,23.15
2023-03-20T02:48:32.725Z,23.16
2023-03-20T02:52:32.775Z,23.16
2023-03-20T02:56:32.850Z,23.16
2023-03-20T03:00:32.932Z,23.16
2023-03-20T03:04:33.019Z,23.15
2023-03-20T03:08:33.058Z,23.15
2023-03-20T03:12:33.114Z,23.16
2023-03-20T03:16:33.161Z,23.15
2023-03-20T03:20:33.234Z,23.15
2023-03-20T03:24:40.931Z,23.16
2023-03-20T03:28:33.206Z,23.15
2023-03-20T03:32:33.312Z,23.15
2023-03-20T03:36:33.196Z,23.15
2023-03-20T03:40:33.152Z,23.15
2023-03-20T03:44:33.113Z,23.15
2023-03-20T03:48:33.089Z,23.14
2023-03-20T03:52:33.083Z,23.15
2023-03-20T03:56:33.033Z,23.15
2023-03-20T04:00:32.997Z,23.16
2023-03-20T04:04:32.991Z,23.16
2023-03-20T04:08:32.949Z,23.14
2023-03-20T04:12:32.868Z,23.15
2023-03-20T04:16:32.923Z,23.15
2023-03-20T04:20:32.786Z,23.15
2023-03-20T04:24:32.759Z,23.16
2023-03-20T04:28:32.755Z,23.17
2023-03-20T04:32:32.884Z,23.16
2023-03-20T04:36:32.815Z,23.18
2023-03-20T04:40:32.844Z,23.20
2023-03-20T04:44:32.825Z,23.22
2023-03-20T04:48:32.801Z,23.24
2023-03-20T04:52:32.801Z,23.26
2023-03-20T04:56:32.819Z,23.28
2023-03-20T05:00:32.823Z,23.29
2023-03-20T05:04:32.853Z,23.30
2023-03-20T05:08:32.814Z,23.32
2023-03-20T05:12:32.818Z,23.33
2023-03-20T05:16:32.811Z,23.34
2023-03-20T05:20:32.747Z,23.35
2023-03-20T05:24:32.726Z,23.37
2023-03-20T05:28:32.717Z,23.38
2023-03-20T05:32:32.820Z,23.38
2023-03-20T05:36:32.782Z,23.39
2023-03-20T05:40:32.811Z,23.39
2023-03-20T05:44:32.794Z,23.41
2023-03-20T05:48:32.708Z,23.41
2023-03-20T05:52:32.657Z,23.42
2023-03-20T05:56:32.723Z,23.43
2023-03-20T06:00:32.760Z,23.44
2023-03-20T06:04:32.776Z,23.44
2023-03-20T06:08:32.775Z,23.44
2023-03-20T06:12:33.289Z,23.45
2023-03-20T06:16:33.313Z,23.44
2023-03-20T06:20:33.301Z,23.42
2023-03-20T06:24:33.216Z,23.43
2023-03-20T06:28:33.309Z,23.43
2023-03-20T06:32:33.947Z,23.43
2023-03-20T06:36:33.796Z,23.44
2023-03-20T06:40:33.801Z,23.44
2023-03-20T06:44:34.343Z,23.44
2023-03-20T06:48:33.821Z,23.41
2023-03-20T06:52:33.820Z,23.52
2023-03-20T06:56:34.300Z,23.60
2023-03-20T07:00:34.038Z,23.67
2023-03-20T07:08:35.191Z,23.63
2023-03-20T07:12:33.810Z,23.62
2023-03-20T07:16:34.458Z,23.60
2023-03-20T07:20:33.816Z,23.58
2023-03-20T07:24:33.849Z,23.56
2023-03-20T07:28:33.822Z,23.54
2023-03-20T07:32:35.046Z,23.52
2023-03-20T07:36:33.323Z,23.50
2023-03-20T07:40:33.279Z,23.47
2023-03-20T07:44:33.318Z,23.44
2023-03-20T07:48:33.331Z,23.43
2023-03-20T07:52:33.351Z,23.40
2023-03-20T07:56:33.105Z,23.37
2023-03-20T08:00:33.323Z,23.36
2023-03-20T08:04:33.330Z,23.32
2023-03-20T08:08:33.322Z,23.27
2023-03-20T08:12:33.384Z,23.31
2023-03-20T08:16:33.345Z,23.32
2023-03-20T08:20:33.545Z,23.29
2023-03-20T08:24:32.837Z,23.26
2023-03-20T08:28:46.743Z,23.25
2023-03-20T08:32:32.975Z,23.30
2023-03-20T08:36:32.918Z,23.38
2023-03-20T08:40:32.888Z,23.44
2023-03-20T08:44:32.891Z,23.43
2023-03-20T08:48:33.195Z,23.44
2023-03-20T08:52:32.845Z,23.56
2023-03-20T08:56:32.848Z,23.67
2023-03-20T09:00:33.023Z,23.70
2023-03-20T09:04:32.460Z,23.65
2023-03-20T09:08:32.846Z,23.61
2023-03-20T09:12:32.327Z,23.61
2023-03-20T09:16:32.557Z,23.65
2023-03-20T09:20:32.352Z,23.69
2023-03-20T09:24:32.356Z,23.76
2023-03-20T09:28:32.721Z,23.81
2023-03-20T09:32:32.985Z,23.85
2023-03-20T09:36:32.493Z,23.86
2023-03-20T09:40:32.864Z,23.90
2023-03-20T09:44:32.859Z,23.94
2023-03-20T09:48:32.884Z,24.02
2023-03-20T09:52:32.877Z,24.09
2023-03-20T09:56:32.810Z,24.08
2023-03-20T10:00:36.505Z,24.11
2023-03-20T10:04:32.991Z,24.13
2023-03-20T10:08:32.888Z,24.17
2023-03-20T10:12:32.537Z,24.17
2023-03-20T10:16:32.947Z,24.12
2023-03-20T10:20:32.410Z,24.16
2023-03-20T10:24:32.373Z,24.19
2023-03-20T10:28:32.237Z,24.22
2023-03-20T10:32:32.389Z,24.24
2023-03-20T10:36:32.403Z,24.26
2023-03-20T10:40:32.404Z,24.25
2023-03-20T10:44:32.382Z,24.32
2023-03-20T10:48:32.380Z,24.36
2023-03-20T10:52:32.254Z,24.31
2023-03-20T10:56:32.259Z,24.29
2023-03-20T11:00:32.386Z,24.27
2023-03-20T11:04:32.454Z,24.27
2023-03-20T11:08:32.433Z,24.32
2023-03-20T11:12:32.400Z,24.30
2023-03-20T11:16:32.441Z,24.26
2023-03-20T11:20:32.407Z,24.27
2023-03-20T11:24:32.320Z,24.29
2023-03-20T11:28:32.412Z,24.24
2023-03-20T11:32:32.437Z,24.24
2023-03-20T11:36:32.402Z,24.20
2023-03-20T11:40:32.477Z,24.20
2023-03-20T11:44:32.420Z,24.19
2023-03-20T11:48:32.400Z,24.20
2023-03-20T11:52:32.404Z,24.26
2023-03-20T11:56:32.434Z,24.36
2023-03-20T12:00:32.419Z,24.38
2023-03-20T12:04:32.759Z,24.39
2023-03-20T12:08:32.416Z,24.37
2023-03-20T12:12:32.436Z,24.39
2023-03-20T12:16:32.415Z,24.34
2023-03-20T12:20:32.418Z,24.24
2023-03-20T12:24:32.419Z,24.17
2023-03-20T12:28:32.441Z,24.11
2023-03-20T12:32:33.429Z,24.07
2023-03-20T12:36:32.935Z,24.03
2023-03-20T12:40:32.600Z,23.97
2023-03-20T12:44:32.972Z,23.96
2023-03-20T12:48:32.927Z,23.92
2023-03-20T12:52:32.928Z,23.99
2023-03-20T12:56:33.433Z,24.06
2023-03-20T13:00:33.485Z,24.11
2023-03-20T13:04:33.436Z,24.17
2023-03-20T13:08:33.443Z,24.21
2023-03-20T13:12:34.047Z,24.25
2023-03-20T13:16:33.549Z,24.32
2023-03-20T13:20:33.536Z,24.33
2023-03-20T13:24:33.446Z,24.38
2023-03-20T13:28:33.448Z,24.38
2023-03-20T13:32:33.565Z,24.37
2023-03-20T13:36:33.444Z,24.42
2023-03-20T13:40:33.449Z,24.41
2023-03-20T13:44:33.450Z,24.41
2023-03-20T13:48:33.471Z,24.43
2023-03-20T13:52:32.886Z,24.44
2023-03-20T13:56:32.955Z,24.43
2023-03-20T14:00:33.050Z,24.43
2023-03-20T14:04:33.023Z,24.38
2023-03-20T14:08:32.962Z,24.31
2023-03-20T14:12:32.455Z,24.40
2023-03-20T14:16:32.462Z,24.46
2023-03-20T14:20:32.532Z,24.44
2023-03-20T14:24:32.458Z,24.46
2023-03-20T14:28:32.467Z,24.47
2023-03-20T14:32:32.512Z,24.49
2023-03-20T14:36:31.908Z,24.50
2023-03-20T14:40:31.965Z,24.51
2023-03-20T14:44:31.967Z,24.58
2023-03-20T14:48:31.999Z,24.60
2023-03-20T14:52:32.001Z,24.60
2023-03-20T14:56:31.831Z,24.59
2023-03-20T15:00:32.011Z,24.59
2023-03-20T15:04:31.970Z,24.58
2023-03-20T15:08:32.024Z,24.58
2023-03-20T15:12:32.021Z,24.62
2023-03-20T15:16:31.996Z,24.63
2023-03-20T15:20:31.859Z,24.55
2023-03-20T15:24:32.011Z,24.53
2023-03-20T15:28:32.015Z,24.49
2023-03-20T15:32:31.983Z,24.38
2023-03-20T15:36:32.042Z,24.32
2023-03-20T15:40:47.394Z,24.20
2023-03-20T15:44:31.984Z,24.18
2023-03-20T15:48:31.639Z,24.15
2023-03-20T15:52:31.565Z,24.14
2023-03-20T15:56:31.529Z,24.11
2023-03-20T16:00:31.464Z,24.08
2023-03-20T16:04:31.412Z,24.06
2023-03-20T16:08:31.517Z,24.05
2023-03-20T16:12:31.532Z,24.04
2023-03-20T16:16:31.548Z,24.03
2023-03-20T16:20:31.504Z,24.03
2023-03-20T16:24:31.505Z,24.04
2023-03-20T16:28:31.455Z,24.04
2023-03-20T16:32:31.523Z,24.04
2023-03-20T16:36:31.584Z,24.03
2023-03-20T16:40:31.672Z,24.02
2023-03-20T16:44:31.769Z,24.02
2023-03-20T16:48:31.841Z,24.00
2023-03-20T16:52:31.921Z,23.97
2023-03-20T16:56:32.107Z,23.94
2023-03-20T17:00:32.159Z,23.93
2023-03-20T17:04:32.257Z,23.91
2023-03-20T17:08:32.312Z,23.89
2023-03-20T17:12:32.458Z,23.87
2023-03-20T17:16:32.618Z,23.85
2023-03-20T17:20:32.649Z,23.85
2023-03-20T17:24:32.819Z,23.85
2023-03-20T17:28:32.902Z,23.83
2023-03-20T17:32:33.048Z,23.82
2023-03-20T17:36:33.159Z,23.80
2023-03-20T17:40:33.280Z,23.78
2023-03-20T17:44:34.027Z,23.76
2023-03-20T17:48:33.579Z,23.77
2023-03-20T17:52:33.714Z,23.73
2023-03-20T17:56:34.037Z,23.73
2023-03-20T18:00:34.131Z,23.70
2023-03-20T18:04:34.028Z,23.69
2023-03-20T18:08:33.898Z,23.68
2023-03-20T18:12:33.808Z,23.67
2023-03-20T18:16:33.762Z,23.65
2023-03-20T18:20:33.699Z,23.64
2023-03-20T18:24:33.625Z,23.65
2023-03-20T18:28:33.554Z,23.64
2023-03-20T18:32:33.513Z,23.63
2023-03-20T18:36:33.529Z,23.62
2023-03-20T18:40:33.431Z,23.63
2023-03-20T18:44:33.350Z,23.63
2023-03-20T18:48:33.300Z,23.63
2023-03-20T18:52:33.486Z,23.64
2023-03-20T18:56:33.448Z,23.63
2023-03-20T19:00:33.332Z,23.62
2023-03-20T19:04:33.271Z,23.58
2023-03-20T19:08:33.243Z,23.59
2023-03-20T19:12:33.172Z,23.57
2023-03-20T19:16:33.225Z,23.56
2023-03-20T19:20:33.306Z,23.54
2023-03-20T19:24:33.256Z,23.54
2023-03-20T19:28:41.582Z,23.55
2023-03-20T19:32:33.123Z,23.55
2023-03-20T19:36:33.085Z,23.54
2023-03-20T19:40:33.059Z,23.55
2023-03-20T19:44:32.998Z,23.55
2023-03-20T19:48:46.933Z,23.55
2023-03-20T19:52:32.904Z,23.54
2023-03-20T19:56:32.877Z,23.55
2023-03-20T20:00:56.744Z,23.57
2023-03-20T20:04:32.775Z,23.55
2023-03-20T20:08:45.827Z,23.53
2023-03-20T20:12:33.112Z,23.54
2023-03-20T20:16:32.771Z,23.53
2023-03-20T20:20:34.650Z,23.52
2023-03-20T20:24:32.569Z,23.52
2023-03-20T20:28:32.542Z,23.51
2023-03-20T20:32:32.502Z,23.53
2023-03-20T20:37:21.622Z,23.51
2023-03-20T20:40:32.471Z,23.54
2023-03-20T20:44:32.468Z,23.54
2023-03-20T20:48:32.422Z,23.51
2023-03-20T20:52:32.495Z,23.51
2023-03-20T20:56:32.429Z,23.50
2023-03-20T21:00:48.472Z,23.51
2023-03-20T21:04:32.341Z,23.50
2023-03-20T21:08:32.273Z,23.49
2023-03-20T21:12:38.363Z,23.50
2023-03-20T21:16:32.260Z,23.48
2023-03-20T21:20:32.202Z,23.50
2023-03-20T21:24:34.272Z,23.49
2023-03-20T21:28:32.088Z,23.51
2023-03-20T21:32:32.096Z,23.52
2023-03-20T21:36:32.035Z,23.52
2023-03-20T21:40:31.981Z,23.51
2023-03-20T21:45:17.891Z,23.50
2023-03-20T21:53:12.071Z,23.49
2023-03-20T22:01:16.210Z,23.47
2023-03-20T22:05:16.823Z,23.47
2023-03-20T22:09:38.677Z,23.48
2023-03-20T22:13:28.506Z,23.48
2023-03-20T22:48:31.425Z,23.46
2023-03-20T22:52:45.914Z,23.46
2023-03-20T22:56:31.389Z,23.45
2023-03-20T23:00:31.390Z,23.48
2023-03-20T23:04:31.358Z,23.49
2023-03-20T23:08:33.523Z,23.48
2023-03-20T23:12:31.311Z,23.46
2023-03-20T23:16:31.313Z,23.45
2023-03-20T23:20:31.226Z,23.45
2023-03-20T23:24:31.213Z,23.45
2023-03-20T23:28:31.173Z,23.46
2023-03-20T23:32:31.138Z,23.47
2023-03-20T23:36:37.855Z,23.46
2023-03-20T23:40:31.167Z,23.48
2023-03-20T23:44:31.079Z,23.48
2023-03-20T23:48:31.131Z,23.44
2023-03-20T23:52:31.309Z,23.44
2023-03-20T23:56:31.017Z,23.44
